Time;durP1;ratioP1;P1;durP2;ratioP2;P2;SDS_P1;SDS_P2;PMS_P1;PMS_P2;Temp;Humidity;BMP_temperature;BMP_pressure;BME280_temperature;BME280_humidity;BME280_pressure;Samples;Min_cycle;Max_cycle;Signal;HPM_P1;HPM_P2
2021/12/25 00:00:35;;;;;;;11.12;4.95;;;;;;;12.44;55.78;96939.66;4471725;32;20599;-78
2021/12/25 00:03:02;;;;;;;11.57;4.68;;;;;;;11.91;57.76;96944.09;4472117;32;20172;-78
2021/12/25 00:05:30;;;;;;;10.98;4.87;;;;;;;12.47;56.37;96942.06;4472159;32;20112;-78
2021/12/25 00:07:57;;;;;;;13.73;4.80;;;;;;;12.67;54.77;96953.66;4471700;32;20085;-78
2021/12/25 00:10:24;;;;;;;11.05;5.15;;;;;;;11.53;57.76;96960.25;4472187;32;20436;-77
2021/12/25 00:12:53;;;;;;;12.73;4.80;;;;;;;12.30;55.09;96952.69;4472273;32;20453;-77
2021/12/25 00:15:21;;;;;;;13.10;5.18;;;;;;;12.50;54.53;96941.00;4471526;32;20370;-77
2021/12/25 00:17:48;;;;;;;13.02;5.28;;;;;;;11.56;56.87;96921.31;4472247;32;20123;-77
2021/12/25 00:20:15;;;;;;;15.43;5.53;;;;;;;10.76;60.76;96919.53;4471823;32;20136;-77
2021/12/25 00:22:43;;;;;;;12.25;5.25;;;;;;;9.96;63.62;96917.41;4457885;32;20172;-78
2021/12/25 00:25:10;;;;;;;12.25;5.37;;;;;;;10.91;60.08;96910.81;4471845;32;20098;-78
2021/12/25 00:27:57;;;;;;;12.07;5.07;;;;;;;10.08;63.21;96925.25;4471901;32;20159;-77
2021/12/25 00:30:32;;;;;;;12.68;5.28;;;;;;;8.01;72.38;96931.41;4471763;32;20169;-77
2021/12/25 00:33:16;;;;;;;10.63;4.32;;;;;;;9.99;63.71;96941.25;4472089;32;20077;-77
2021/12/25 00:35:43;;;;;;;11.32;5.20;;;;;;;9.89;61.78;96940.16;4471739;32;20103;-77
2021/12/25 00:38:10;;;;;;;13.73;5.45;;;;;;;10.83;58.67;96941.41;4471798;32;20160;-77
2021/12/25 00:40:37;;;;;;;12.82;5.15;;;;;;;11.46;56.60;96940.91;4471958;32;20505;-77
2021/12/25 00:43:04;;;;;;;12.43;5.20;;;;;;;11.83;55.76;96942.00;4471629;32;20167;-77
2021/12/25 00:45:31;;;;;;;12.30;4.80;;;;;;;11.93;55.74;96951.75;4471799;32;20145;-77
2021/12/25 00:47:58;;;;;;;11.60;5.30;;;;;;;12.27;55.23;96965.84;4471859;32;20108;-78
2021/12/25 00:50:25;;;;;;;11.80;4.82;;;;;;;12.77;53.34;96961.59;4471492;32;20152;-78
2021/12/25 00:52:52;;;;;;;11.30;4.95;;;;;;;12.91;52.05;96972.66;4457488;32;20092;-78
2021/12/25 00:55:19;;;;;;;10.40;4.82;;;;;;;12.52;53.07;96980.53;4471570;32;20121;-78
2021/12/25 00:57:46;;;;;;;11.80;3.78;;;;;;;12.20;54.16;96975.75;4471686;32;20119;-78
2021/12/25 01:00:14;;;;;;;10.55;3.87;;;;;;;12.51;53.55;96971.12;4472058;32;20436;-78
2021/12/25 01:02:43;;;;;;;10.18;4.03;;;;;;;13.16;53.58;96979.53;4445095;32;20546;-78
2021/12/25 01:05:11;;;;;;;10.75;4.20;;;;;;;13.19;53.37;96981.13;4471278;32;20081;-77
2021/12/25 01:07:39;;;;;;;9.73;4.05;;;;;;;12.79;54.23;96981.28;4471763;32;20531;-78
2021/12/25 01:10:09;;;;;;;10.43;4.32;;;;;;;12.27;55.65;96989.94;4471825;32;20203;-78
2021/12/25 01:12:53;;;;;;;9.65;4.15;;;;;;;12.38;55.12;96994.41;4471522;32;20152;-78
2021/12/25 01:15:25;;;;;;;10.23;4.10;;;;;;;12.15;54.81;96994.19;4471481;32;20386;-78
2021/12/25 01:18:11;;;;;;;9.85;4.30;;;;;;;12.90;52.67;96998.66;4471289;32;20163;-78
2021/12/25 01:21:02;;;;;;;10.45;4.20;;;;;;;13.25;51.04;96993.66;4471336;32;20455;-78
2021/12/25 01:23:58;;;;;;;10.73;4.28;;;;;;;13.18;50.45;96979.41;4471365;32;20140;-78
2021/12/25 01:29:36;;;;;;;8.95;3.83;;;;;;;12.49;53.00;96970.41;4471398;32;20591;-78
2021/12/25 01:35:08;;;;;;;10.48;4.18;;;;;;;12.03;53.37;96974.31;4471440;32;20168;-78
2021/12/25 01:37:47;;;;;;;10.60;4.18;;;;;;;12.05;53.79;96985.38;4471626;32;20112;-78
2021/12/25 01:48:34;;;;;;;10.60;4.57;;;;;;;12.34;52.92;96973.09;4459700;32;20440;-78
2021/12/25 01:51:02;;;;;;;11.32;4.70;;;;;;;12.77;52.36;96969.38;4471283;32;20141;-78
2021/12/25 01:53:28;;;;;;;10.80;4.82;;;;;;;12.51;53.22;96974.53;4470872;32;20144;-78
2021/12/25 01:55:58;;;;;;;10.63;4.22;;;;;;;12.81;52.44;96965.63;4471145;32;20077;-78
2021/12/25 01:58:25;;;;;;;11.25;4.43;;;;;;;13.78;48.66;96976.84;4470967;32;20188;-78
2021/12/25 02:00:54;;;;;;;10.48;4.22;;;;;;;12.83;51.25;96969.75;4470552;32;20161;-78
2021/12/25 02:03:24;;;;;;;11.82;4.53;;;;;;;12.37;53.03;96978.06;4470946;32;20096;-78
2021/12/25 02:05:51;;;;;;;11.02;4.60;;;;;;;11.32;59.71;96971.12;4471858;32;20093;-78
2021/12/25 02:08:21;;;;;;;10.02;4.20;;;;;;;11.59;58.52;96959.87;4472643;32;20149;-78
2021/12/25 02:10:48;;;;;;;10.70;4.07;;;;;;;12.47;55.17;96959.34;4472931;32;20116;-78
2021/12/25 02:13:17;;;;;;;11.25;4.22;;;;;;;12.83;52.00;96963.75;4472783;32;20159;-78
2021/12/25 02:15:48;;;;;;;17.98;8.45;;;;;;;12.02;54.85;96972.66;4472539;32;20185;-78
2021/12/25 02:18:24;;;;;;;25.30;11.07;;;;;;;9.46;64.09;96972.63;4472968;32;20169;-78
2021/12/25 02:21:16;;;;;;;21.77;10.70;;;;;;;10.97;57.49;96972.41;4472602;32;20156;-78
2021/12/25 02:23:44;;;;;;;20.95;10.20;;;;;;;10.09;61.19;96970.72;4472980;32;20096;-78
2021/12/25 02:26:11;;;;;;;20.88;9.82;;;;;;;9.88;62.89;96973.69;4458868;32;20080;-78
2021/12/25 02:28:38;;;;;;;21.75;9.35;;;;;;;9.90;63.30;96975.31;4458235;32;20089;-78
2021/12/25 02:31:09;;;;;;;18.70;9.23;;;;;;;10.07;64.07;96969.16;4472783;32;20097;-78
2021/12/25 02:33:38;;;;;;;16.20;7.60;;;;;;;10.53;62.95;96966.53;4472827;32;20160;-78
2021/12/25 02:36:06;;;;;;;17.92;8.75;;;;;;;10.18;63.89;96966.78;4472468;32;20103;-78
2021/12/25 02:38:34;;;;;;;21.70;10.75;;;;;;;10.49;62.26;96955.53;4472844;32;20077;-78
2021/12/25 02:41:01;;;;;;;26.92;13.13;;;;;;;11.24;59.86;96963.84;4472800;32;20088;-78
2021/12/25 02:43:28;;;;;;;24.20;13.02;;;;;;;11.75;56.15;96972.63;4472273;32;20123;-78
2021/12/25 02:45:56;;;;;;;25.45;12.63;;;;;;;11.85;53.75;96976.31;4472734;32;20179;-78
2021/12/25 02:48:23;;;;;;;31.77;15.55;;;;;;;10.71;57.68;96980.88;4472807;32;20077;-78
2021/12/25 02:50:51;;;;;;;26.25;12.95;;;;;;;11.52;55.27;96976.69;4472496;32;20124;-78
2021/12/25 02:53:18;;;;;;;13.40;5.18;;;;;;;11.55;54.04;96983.41;4472907;32;20104;-78
2021/12/25 02:55:46;;;;;;;12.30;4.60;;;;;;;10.87;54.86;96978.22;4472631;32;20085;-78
2021/12/25 02:58:14;;;;;;;9.20;4.12;;;;;;;9.46;59.31;96981.19;4472693;32;20172;-77
2021/12/25 03:00:46;;;;;;;9.38;3.42;;;;;;;10.27;56.22;96980.94;4472896;32;20093;-77
2021/12/25 03:03:14;;;;;;;9.77;3.80;;;;;;;10.04;56.23;96977.91;4472433;32;20443;-77
2021/12/25 03:05:41;;;;;;;9.93;3.45;;;;;;;9.71;56.83;96980.66;4472688;32;20534;-77
2021/12/25 03:08:10;;;;;;;9.07;3.42;;;;;;;10.42;55.03;96980.03;4472477;32;20122;-78
2021/12/25 03:10:38;;;;;;;8.75;3.75;;;;;;;9.91;56.43;96976.13;4472323;32;20235;-77
2021/12/25 03:15:45;;;;;;;8.77;3.28;;;;;;;10.50;54.33;96985.56;4472366;32;20180;-78
2021/12/25 03:18:18;;;;;;;8.82;3.45;;;;;;;9.31;58.44;96994.88;4471831;32;20420;-78
2021/12/25 03:20:50;;;;;;;9.98;4.12;;;;;;;6.96;68.16;97007.38;4472243;32;20113;-78
2021/12/25 03:23:21;;;;;;;10.38;4.00;;;;;;;7.65;68.21;97019.59;4472443;32;20837;-77
2021/12/25 03:25:49;;;;;;;10.57;3.83;;;;;;;8.38;66.30;97008.31;4472237;32;20147;-78
2021/12/25 03:28:18;;;;;;;9.43;4.05;;;;;;;9.61;61.71;97007.84;4472310;32;20098;-78
2021/12/25 03:30:45;;;;;;;10.98;4.35;;;;;;;8.89;64.80;96998.84;4458073;32;20121;-77
2021/12/25 03:33:16;;;;;;;9.15;3.92;;;;;;;8.93;64.70;97007.22;4472447;32;20424;-78
2021/12/25 03:35:43;;;;;;;9.40;3.85;;;;;;;10.01;61.41;96988.41;4458397;32;20065;-78
2021/12/25 03:38:12;;;;;;;9.38;3.78;;;;;;;9.84;61.63;96978.22;4471931;32;20630;-78
2021/12/25 03:40:40;;;;;;;10.90;4.22;;;;;;;10.66;58.96;96975.16;4472358;32;20104;-78
2021/12/25 03:43:07;;;;;;;10.73;4.28;;;;;;;10.21;60.15;96976.09;4472400;32;20163;-78
2021/12/25 03:45:35;;;;;;;10.00;4.10;;;;;;;9.99;61.52;96986.81;4471883;32;20163;-77
2021/12/25 03:48:09;;;;;;;11.88;4.20;;;;;;;10.12;59.96;96982.63;4472238;32;20478;-77
2021/12/25 03:53:36;;;;;;;10.35;4.10;;;;;;;10.46;60.24;96986.66;4471875;32;20148;-78
2021/12/25 03:58:51;;;;;;;9.65;4.20;;;;;;;10.53;62.13;96984.56;4459801;32;20097;-78
2021/12/25 04:01:41;;;;;;;12.07;4.50;;;;;;;10.58;61.92;96996.25;4472300;32;20137;-78
2021/12/25 04:04:34;;;;;;;10.40;4.05;;;;;;;11.25;60.08;96999.91;4472235;32;20168;-78
2021/12/25 04:09:49;;;;;;;9.43;3.85;;;;;;;9.21;66.49;96983.44;4472128;32;20157;-77
2021/12/25 04:12:17;;;;;;;9.52;3.97;;;;;;;11.09;58.83;96972.56;4472072;32;20152;-78
2021/12/25 04:14:47;;;;;;;10.02;4.12;;;;;;;10.49;59.95;96960.69;4471841;32;20379;-78
2021/12/25 04:17:14;;;;;;;11.00;4.40;;;;;;;8.98;63.30;96958.94;4472063;32;20099;-77
2021/12/25 04:19:41;;;;;;;11.00;4.28;;;;;;;10.25;58.99;96944.94;4471783;32;20149;-77
2021/12/25 04:22:15;;;;;;;9.90;4.03;;;;;;;10.11;60.79;96945.72;4471535;32;20108;-77
2021/12/25 04:24:45;;;;;;;11.88;4.50;;;;;;;9.59;65.90;96959.91;4472122;32;20367;-77
2021/12/25 04:27:15;;;;;;;10.80;4.43;;;;;;;10.26;62.76;96959.47;4471783;32;20140;-77
2021/12/25 04:29:51;;;;;;;10.73;4.47;;;;;;;9.87;65.24;96967.72;4457538;32;20414;-77
2021/12/25 05:02:53;;;;;;;9.40;4.12;;;;;;;10.33;55.72;96971.09;4422783;32;20104;-78
2021/12/25 05:05:21;;;;;;;10.55;3.97;;;;;;;9.64;59.40;96989.63;4458956;32;20096;-77
2021/12/25 05:07:48;;;;;;;10.75;3.85;;;;;;;10.26;58.07;96993.00;4471585;32;20139;-78
2021/12/25 05:10:15;;;;;;;9.45;3.70;;;;;;;10.13;58.02;96992.84;4471293;32;20102;-78
2021/12/25 05:12:42;;;;;;;10.30;4.03;;;;;;;8.62;63.56;97001.12;4471628;32;20121;-78
2021/12/25 05:15:09;;;;;;;11.82;3.67;;;;;;;9.97;59.16;97004.09;4471294;32;20115;-78
2021/12/25 05:17:36;;;;;;;8.85;3.17;;;;;;;9.59;61.08;97001.12;4471225;32;20136;-78
2021/12/25 05:20:04;;;;;;;9.07;3.55;;;;;;;10.63;58.42;97004.56;4471445;32;20425;-78
2021/12/25 05:22:31;;;;;;;9.60;3.67;;;;;;;10.89;57.64;97005.56;4471456;32;20120;-78
2021/12/25 05:24:58;;;;;;;9.43;3.40;;;;;;;11.04;57.45;97008.13;4471301;32;20163;-78
2021/12/25 05:27:25;;;;;;;8.98;3.58;;;;;;;11.73;55.43;97002.09;4471517;32;20160;-78
2021/12/25 05:29:52;;;;;;;7.43;2.90;;;;;;;11.42;56.48;97003.19;4471337;32;20098;-78
2021/12/25 05:32:20;;;;;;;11.27;3.20;;;;;;;11.33;56.79;96999.44;4471113;32;20123;-78
2021/12/25 05:34:47;;;;;;;7.28;3.17;;;;;;;11.43;55.95;96985.03;4471397;32;20109;-78
2021/12/25 05:37:14;;;;;;;8.48;2.97;;;;;;;12.18;53.74;96992.31;4457125;32;20120;-78
2021/12/25 05:39:49;;;;;;;6.70;2.70;;;;;;;12.41;53.42;96995.03;4471176;32;20467;-78
2021/12/25 05:42:22;;;;;;;7.95;2.92;;;;;;;12.02;54.42;96995.91;4471511;32;20084;-78
2021/12/25 05:44:50;;;;;;;8.20;2.97;;;;;;;12.32;52.70;97000.81;4457299;32;20485;-78
2021/12/25 05:47:17;;;;;;;8.68;2.97;;;;;;;12.69;52.06;97014.72;4457311;32;20115;-78
2021/12/25 05:49:44;;;;;;;9.20;2.67;;;;;;;12.09;52.94;97014.41;4471056;32;20143;-78
2021/12/25 05:52:11;;;;;;;7.82;3.22;;;;;;;11.42;54.06;97013.53;4470846;32;20068;-78
2021/12/25 05:54:38;;;;;;;8.13;3.30;;;;;;;11.37;55.19;97013.81;4471106;32;20165;-77
2021/12/25 05:57:05;;;;;;;9.95;2.92;;;;;;;11.68;55.04;97015.28;4471185;32;20104;-77
2021/12/25 05:59:32;;;;;;;7.43;2.97;;;;;;;10.88;60.24;97009.06;4456644;32;20144;-77
2021/12/25 06:01:59;;;;;;;7.70;2.80;;;;;;;10.29;65.34;97002.28;4457236;32;20101;-77
2021/12/25 06:04:26;;;;;;;6.12;2.65;;;;;;;10.78;64.50;97002.81;4470896;32;20166;-77
2021/12/25 06:06:53;;;;;;;7.60;3.10;;;;;;;12.07;60.48;97006.78;4470666;32;20105;-77
2021/12/25 06:09:20;;;;;;;7.82;3.17;;;;;;;12.15;60.39;97006.28;4470778;32;20101;-78
2021/12/25 06:11:48;;;;;;;8.70;3.20;;;;;;;11.93;61.20;97014.59;4470984;32;20136;-78
2021/12/25 06:14:21;;;;;;;7.82;3.22;;;;;;;12.93;57.47;97007.03;4470716;32;20109;-78
2021/12/25 06:16:50;;;;;;;6.82;2.75;;;;;;;13.42;55.15;97024.38;4470960;32;20159;-78
2021/12/25 06:19:17;;;;;;;7.55;2.80;;;;;;;13.16;55.53;97015.78;4470333;32;20092;-78
2021/12/25 06:21:44;;;;;;;8.20;3.03;;;;;;;12.75;56.83;97018.63;4456781;32;20124;-78
2021/12/25 06:24:14;;;;;;;8.00;2.95;;;;;;;12.48;57.01;97018.75;4470948;32;20476;-78
2021/12/25 06:26:41;;;;;;;8.10;3.10;;;;;;;12.21;57.33;97044.66;4470663;32;20093;-78
2021/12/25 06:29:08;;;;;;;6.78;2.80;;;;;;;11.85;56.43;97047.84;4470780;32;20085;-78
2021/12/25 06:31:35;;;;;;;9.27;3.50;;;;;;;10.43;61.25;97035.84;4470969;32;20584;-77
2021/12/25 06:34:03;;;;;;;8.35;3.30;;;;;;;10.24;62.28;97050.72;4470807;32;20105;-78
2021/12/25 06:36:30;;;;;;;9.02;3.33;;;;;;;10.99;60.45;97054.88;4471009;32;20093;-77
2021/12/25 06:38:57;;;;;;;8.98;3.08;;;;;;;11.79;57.39;97053.38;4456726;32;20155;-77
2021/12/25 06:41:24;;;;;;;8.73;3.30;;;;;;;11.55;57.38;97055.75;4470653;32;20145;-78
2021/12/25 06:43:51;;;;;;;7.85;3.08;;;;;;;11.93;55.96;97057.72;4470700;32;20132;-78
2021/12/25 06:46:18;;;;;;;8.13;3.50;;;;;;;12.09;55.27;97066.97;4470647;32;20477;-78
2021/12/25 06:48:45;;;;;;;8.52;3.03;;;;;;;12.19;54.85;97062.03;4470143;32;20093;-77
2021/12/25 06:51:13;;;;;;;8.43;3.30;;;;;;;12.15;54.61;97055.41;4470774;32;20120;-78
2021/12/25 06:53:40;;;;;;;8.63;3.20;;;;;;;11.22;56.95;97058.66;4472509;32;20169;-78
2021/12/25 06:56:07;;;;;;;8.63;3.20;;;;;;;11.53;55.62;97073.09;4472136;32;20447;-77
2021/12/25 06:58:34;;;;;;;10.20;3.58;;;;;;;10.45;58.76;97072.69;4472532;32;20594;-77
2021/12/25 07:01:01;;;;;;;6.85;2.87;;;;;;;9.48;63.96;97077.22;4472596;32;20076;-77
2021/12/25 07:03:28;;;;;;;9.93;3.45;;;;;;;8.40;68.63;97078.50;4472225;32;20080;-77
2021/12/25 07:05:55;;;;;;;8.43;3.30;;;;;;;9.38;65.70;97081.19;4472567;32;20113;-77
2021/12/25 07:08:22;;;;;;;9.55;3.30;;;;;;;9.81;64.89;97071.97;4472195;32;20160;-77
2021/12/25 07:10:49;;;;;;;9.02;3.10;;;;;;;10.78;61.59;97074.22;4472484;32;20402;-77
2021/12/25 07:13:19;;;;;;;8.45;3.00;;;;;;;11.26;60.48;97075.59;4472479;32;20166;-77
2021/12/25 07:15:47;;;;;;;9.52;2.80;;;;;;;11.34;61.26;97072.56;4472225;32;20519;-77
2021/12/25 07:18:14;;;;;;;9.00;3.10;;;;;;;11.70;60.69;97075.47;4472512;32;20089;-78
2021/12/25 07:20:42;;;;;;;6.32;2.87;;;;;;;11.40;62.15;97067.03;4472232;32;20113;-78
2021/12/25 07:23:09;;;;;;;7.47;3.22;;;;;;;12.00;61.53;97059.78;4472338;32;20111;-78
2021/12/25 07:25:36;;;;;;;8.07;2.90;;;;;;;13.04;59.95;97064.09;4472475;32;20097;-78
2021/12/25 07:28:04;;;;;;;7.95;2.78;;;;;;;14.63;53.42;97054.53;4458299;32;20096;-77
2021/12/25 07:30:31;;;;;;;6.43;2.87;;;;;;;13.50;55.72;97065.28;4472058;32;20382;-78
2021/12/25 07:32:58;;;;;;;6.40;2.60;;;;;;;14.50;52.96;97067.59;4472421;32;20153;-78
2021/12/25 07:35:26;;;;;;;7.95;3.05;;;;;;;14.85;51.53;97075.34;4472444;32;20119;-78
2021/12/25 07:37:55;;;;;;;7.45;2.70;;;;;;;15.58;48.83;97076.66;4472203;32;20419;-78
2021/12/25 07:40:22;;;;;;;8.40;3.00;;;;;;;16.41;46.55;97076.13;4458601;32;20563;-78
2021/12/25 07:42:49;;;;;;;8.32;3.00;;;;;;;16.97;44.88;97065.41;4472313;32;20152;-78
2021/12/25 07:45:16;;;;;;;6.40;2.58;;;;;;;17.18;44.62;97062.78;4472110;32;20165;-78
2021/12/25 07:47:51;;;;;;;6.28;2.53;;;;;;;17.04;45.37;97051.75;4472863;32;20096;-78
2021/12/25 07:50:18;;;;;;;8.18;3.28;;;;;;;15.98;46.63;97057.94;4472351;32;20120;-78
2021/12/25 07:52:45;;;;;;;7.85;2.90;;;;;;;18.33;43.09;97056.22;4473102;32;20517;-78
2021/12/25 07:55:12;;;;;;;7.55;2.70;;;;;;;19.59;40.62;97056.78;4472804;32;20148;-78
2021/12/25 07:57:39;;;;;;;5.68;2.62;;;;;;;20.41;38.12;97043.50;4473061;32;20175;-78
2021/12/25 08:00:08;;;;;;;7.03;2.70;;;;;;;20.11;37.22;97039.50;4473450;32;20151;-78
2021/12/25 08:02:36;;;;;;;6.53;3.00;;;;;;;19.69;38.39;97030.56;4472802;32;20100;-78
2021/12/25 08:05:04;;;;;;;7.75;3.12;;;;;;;19.99;38.21;97034.63;4472469;32;20131;-78
2021/12/25 08:07:31;;;;;;;9.68;4.15;;;;;;;19.61;38.08;97047.81;4473223;32;20414;-78
2021/12/25 08:10:11;;;;;;;20.88;9.15;;;;;;;19.01;38.90;97044.72;4458911;32;20085;-78
2021/12/25 08:12:49;;;;;;;17.85;8.20;;;;;;;18.87;38.75;97050.41;4472386;32;20156;-78
2021/12/25 08:15:19;;;;;;;15.40;7.00;;;;;;;18.39;39.70;97050.41;4472771;32;20382;-78
2021/12/25 08:17:46;;;;;;;11.93;5.50;;;;;;;18.45;40.08;97058.53;4472808;32;20757;-78
2021/12/25 08:20:15;;;;;;;12.55;4.87;;;;;;;18.90;39.75;97049.28;4458651;32;20111;-78
2021/12/25 08:22:42;;;;;;;10.38;4.12;;;;;;;18.00;41.38;97049.59;4472282;32;20510;-78
2021/12/25 08:25:11;;;;;;;10.55;4.70;;;;;;;18.90;39.27;97052.72;4472456;32;20795;-78
2021/12/25 08:27:39;;;;;;;12.60;5.22;;;;;;;18.84;39.79;97055.09;4472027;32;20119;-78
2021/12/25 08:30:10;;;;;;;10.27;4.70;;;;;;;18.92;40.16;97049.97;4472241;32;20144;-78
2021/12/25 08:32:38;;;;;;;9.70;4.03;;;;;;;19.13;40.39;97052.37;4471972;32;20147;-78
2021/12/25 08:35:06;;;;;;;8.38;3.70;;;;;;;19.17;40.10;97049.34;4472284;32;20152;-78
2021/12/25 08:37:33;;;;;;;8.80;3.42;;;;;;;19.69;39.18;97048.88;4472263;32;20092;-78
2021/12/25 08:40:02;;;;;;;8.00;3.42;;;;;;;19.64;39.33;97047.50;4457798;32;20152;-78
2021/12/25 08:42:29;;;;;;;7.53;3.28;;;;;;;20.56;37.08;97045.66;4472100;32;20116;-78
2021/12/25 08:47:28;;;;;;;8.07;3.25;;;;;;;19.84;38.38;97045.59;4471818;32;20102;-78
2021/12/25 08:49:55;;;;;;;7.97;3.05;;;;;;;19.96;38.39;97046.22;4471861;32;20095;-78
2021/12/25 08:52:25;;;;;;;8.43;3.37;;;;;;;19.92;38.22;97050.09;4472273;32;20708;-78
2021/12/25 08:54:52;;;;;;;7.43;3.05;;;;;;;20.98;37.07;97040.53;4471931;32;20116;-78
2021/12/25 08:57:24;;;;;;;7.40;3.15;;;;;;;20.58;37.28;97056.78;4472275;32;20096;-78
2021/12/25 08:59:53;;;;;;;7.78;3.17;;;;;;;19.90;38.82;97046.81;4472138;32;20171;-78
2021/12/25 09:02:23;;;;;;;8.13;3.40;;;;;;;20.26;38.18;97052.06;4471967;32;20156;-78
2021/12/25 09:04:51;;;;;;;8.40;3.50;;;;;;;19.97;38.65;97062.75;4472027;32;20128;-78
2021/12/25 09:07:19;;;;;;;8.23;3.40;;;;;;;18.77;41.13;97050.41;4472171;32;20085;-78
2021/12/25 09:09:46;;;;;;;8.30;3.40;;;;;;;18.48;42.14;97053.03;4471651;32;20080;-78
2021/12/25 09:12:15;;;;;;;8.52;3.40;;;;;;;18.85;41.79;97056.75;4471964;32;20115;-78
2021/12/25 09:14:43;;;;;;;8.40;3.58;;;;;;;19.31;41.33;97051.50;4471247;32;20487;-78
2021/12/25 09:17:11;;;;;;;7.82;3.17;;;;;;;20.65;38.13;97063.09;4472231;32;20392;-78
2021/12/25 09:19:38;;;;;;;9.45;3.60;;;;;;;21.75;35.81;97068.47;4472251;32;20128;-78
2021/12/25 09:22:06;;;;;;;13.62;5.15;;;;;;;21.78;35.51;97067.31;4472165;32;20101;-78
2021/12/25 09:24:34;;;;;;;8.57;3.65;;;;;;;22.50;33.91;97071.94;4472293;32;20101;-78
2021/12/25 09:27:02;;;;;;;9.38;3.70;;;;;;;22.96;32.82;97060.91;4472531;32;20422;-78
2021/12/25 09:29:29;;;;;;;8.85;3.83;;;;;;;23.34;31.82;97049.66;4472053;32;20085;-78
2021/12/25 09:31:56;;;;;;;10.52;3.90;;;;;;;22.90;32.57;97054.53;4457812;32;20100;-78
2021/12/25 09:34:23;;;;;;;8.18;3.85;;;;;;;22.22;33.48;97060.91;4471441;32;20116;-78
2021/12/25 09:36:50;;;;;;;9.00;3.80;;;;;;;21.25;35.77;97056.06;4457154;32;20102;-78
2021/12/25 09:39:17;;;;;;;9.93;3.87;;;;;;;21.11;36.79;97056.66;4471191;32;20081;-78
2021/12/25 09:41:45;;;;;;;9.18;3.75;;;;;;;22.09;34.36;97052.66;4471558;32;20132;-78
2021/12/25 09:44:12;;;;;;;8.00;3.47;;;;;;;22.02;34.32;97051.66;4457023;32;20168;-78
2021/12/25 09:46:40;;;;;;;8.10;3.47;;;;;;;22.28;33.84;97048.91;4471343;32;20122;-78
2021/12/25 09:49:08;;;;;;;8.60;3.60;;;;;;;22.85;32.08;97050.75;4471146;32;20081;-78
2021/12/25 09:51:35;;;;;;;9.13;3.65;;;;;;;22.34;33.25;97058.78;4470960;32;20111;-78
2021/12/25 09:54:07;;;;;;;7.78;2.95;;;;;;;21.93;33.77;97050.00;4471081;32;20127;-78
2021/12/25 09:56:36;;;;;;;8.60;3.70;;;;;;;21.07;34.71;97035.19;4470884;32;20466;-78
2021/12/25 09:59:04;;;;;;;9.68;3.72;;;;;;;21.21;34.30;97033.78;4470985;32;20488;-78
2021/12/25 10:01:43;;;;;;;9.23;3.53;;;;;;;21.27;34.18;97035.81;4471209;32;20111;-78
2021/12/25 10:04:29;;;;;;;7.87;3.55;;;;;;;21.51;33.72;97029.03;4470727;32;20113;-78
2021/12/25 10:06:57;;;;;;;7.90;3.40;;;;;;;21.08;34.24;97020.28;4471057;32;20088;-78
2021/12/25 10:09:25;;;;;;;8.45;3.58;;;;;;;21.77;33.55;97016.62;4470811;32;20144;-78
2021/12/25 10:12:08;;;;;;;8.82;3.60;;;;;;;22.42;31.91;97010.66;4470659;32;20234;-78
2021/12/25 10:14:37;;;;;;;9.93;4.35;;;;;;;21.50;34.17;97009.81;4457193;32;20157;-78
2021/12/25 10:17:19;;;;;;;8.25;3.33;;;;;;;22.13;33.25;96996.22;4471255;32;20144;-78
2021/12/25 10:20:15;;;;;;;8.63;3.83;;;;;;;23.02;31.52;97005.84;4470974;32;20160;-77
2021/12/25 10:23:10;;;;;;;8.18;3.20;;;;;;;22.30;32.49;97006.72;4471285;32;20101;-77
2021/12/25 10:25:44;;;;;;;8.98;3.95;;;;;;;22.10;32.93;97009.66;4470948;32;20113;-78
2021/12/25 10:28:13;;;;;;;9.25;3.45;;;;;;;22.49;32.59;97001.12;4472982;32;20106;-78
2021/12/25 10:30:53;;;;;;;8.48;3.33;;;;;;;22.71;32.08;97003.06;4473085;32;20074;-78
2021/12/25 10:33:32;;;;;;;7.75;3.42;;;;;;;22.71;32.32;97005.69;4472948;32;20152;-78
2021/12/25 10:36:09;;;;;;;7.82;3.10;;;;;;;23.04;31.54;97000.41;4473511;32;20077;-78
2021/12/25 10:38:37;;;;;;;7.40;3.08;;;;;;;23.42;30.96;97001.44;4473789;32;20060;-78
2021/12/25 10:41:19;;;;;;;8.85;3.50;;;;;;;23.70;30.34;97007.06;4473328;32;20076;-78
2021/12/25 10:43:47;;;;;;;8.80;3.33;;;;;;;23.36;30.66;97002.09;4473623;32;20153;-78
2021/12/25 10:46:16;;;;;;;8.30;3.35;;;;;;;23.43;30.75;96989.09;4473399;32;20146;-78
2021/12/25 10:48:43;;;;;;;8.18;3.58;;;;;;;24.01;30.09;96987.78;4473479;32;20171;-78
2021/12/25 10:51:28;;;;;;;8.85;3.62;;;;;;;22.83;31.46;96981.69;4459844;32;20102;-78
2021/12/25 10:53:56;;;;;;;10.80;5.05;;;;;;;23.08;30.56;96978.03;4473190;32;20156;-78
2021/12/25 10:56:33;;;;;;;12.43;5.60;;;;;;;22.47;31.62;96966.31;4473658;32;20156;-78
2021/12/25 10:59:12;;;;;;;13.02;4.87;;;;;;;22.22;31.93;96965.47;4473863;32;20447;-78
2021/12/25 11:01:47;;;;;;;9.00;3.20;;;;;;;22.06;31.87;96958.44;4473345;32;20442;-78
2021/12/25 11:04:30;;;;;;;8.57;3.35;;;;;;;21.83;31.37;96957.41;4473909;32;20156;-78
2021/12/25 11:06:58;;;;;;;6.97;3.03;;;;;;;22.16;30.95;96940.72;4473373;32;20156;-78
2021/12/25 11:09:25;;;;;;;6.93;2.60;;;;;;;21.72;31.60;96945.41;4458759;32;20495;-78
2021/12/25 11:12:16;;;;;;;7.35;2.78;;;;;;;22.23;30.81;96938.25;4472774;32;20215;-78
2021/12/25 11:14:48;;;;;;;8.18;3.37;;;;;;;21.67;31.92;96938.00;4472159;32;20180;-78
2021/12/25 11:17:25;;;;;;;8.27;3.10;;;;;;;21.20;33.18;96939.50;4472395;32;20099;-78
2021/12/25 11:20:01;;;;;;;8.07;3.10;;;;;;;20.41;34.52;96927.41;4472296;32;20858;-78
2021/12/25 11:22:52;;;;;;;6.72;2.97;;;;;;;20.70;34.01;96924.53;4472093;32;20119;-77
2021/12/25 11:25:21;;;;;;;6.85;2.67;;;;;;;19.96;35.91;96932.81;4472472;32;20152;-78
2021/12/25 11:27:49;;;;;;;6.90;2.78;;;;;;;20.28;35.32;96913.91;4472094;32;20088;-78
2021/12/25 11:30:18;;;;;;;6.87;2.70;;;;;;;20.11;35.05;96918.22;4472387;32;20573;-78
2021/12/25 11:32:46;;;;;;;7.53;3.08;;;;;;;19.78;36.33;96927.56;4472403;32;20103;-78
2021/12/25 11:35:16;;;;;;;6.85;2.55;;;;;;;19.18;38.53;96920.25;4471928;32;20089;-77
2021/12/25 11:37:43;;;;;;;7.05;2.72;;;;;;;18.39;40.56;96917.22;4458068;32;20511;-77
2021/12/25 11:40:11;;;;;;;8.90;2.78;;;;;;;17.16;43.99;96916.13;4458186;32;20179;-78
2021/12/25 11:42:44;;;;;;;8.25;2.92;;;;;;;17.86;42.61;96912.50;4457929;32;20073;-78
2021/12/25 11:45:23;;;;;;;7.93;2.92;;;;;;;18.63;41.10;96917.59;4472259;32;20153;-78
2021/12/25 11:47:53;;;;;;;7.50;2.90;;;;;;;18.97;40.29;96907.44;4472588;32;20111;-78
2021/12/25 11:50:32;;;;;;;8.00;3.00;;;;;;;19.04;40.46;96907.69;4471943;32;20159;-78
2021/12/25 11:53:24;;;;;;;9.15;3.40;;;;;;;18.52;41.95;96901.28;4472326;32;20148;-78
2021/12/25 11:58:42;;;;;;;8.15;2.90;;;;;;;18.11;43.34;96896.28;4472204;32;20116;-77
2021/12/25 12:01:25;;;;;;;8.85;3.22;;;;;;;17.55;44.76;96896.16;4472149;32;20080;-77
2021/12/25 12:03:58;;;;;;;9.18;3.58;;;;;;;16.64;47.89;96897.97;4471815;32;20088;-78
2021/12/25 12:06:47;;;;;;;9.30;3.28;;;;;;;17.78;44.72;96894.13;4445542;32;20100;-77
2021/12/25 12:09:15;;;;;;;8.07;3.35;;;;;;;17.50;45.32;96900.94;4472070;32;20122;-78
2021/12/25 12:11:51;;;;;;;7.82;2.97;;;;;;;17.52;45.96;96905.06;4471947;32;20107;-77
2021/12/25 12:14:27;;;;;;;8.05;3.30;;;;;;;17.62;45.19;96900.66;4472230;32;20151;-77
2021/12/25 12:16:55;;;;;;;7.87;3.20;;;;;;;16.48;48.07;96900.22;4457924;32;20156;-77
2021/12/25 12:19:36;;;;;;;7.72;2.85;;;;;;;17.53;46.01;96911.91;4472121;32;20172;-78
2021/12/25 12:22:15;;;;;;;9.15;3.53;;;;;;;17.03;47.44;96912.00;4471864;32;20098;-77
2021/12/25 12:27:34;;;;;;;8.38;3.08;;;;;;;18.49;43.70;96910.19;4472353;32;20506;-78
2021/12/25 12:30:04;;;;;;;8.20;2.92;;;;;;;17.96;44.97;96902.06;4471950;32;20152;-77
2021/12/25 12:32:45;;;;;;;7.10;2.65;;;;;;;17.29;46.70;96903.66;4471837;32;20099;-78
2021/12/25 12:35:31;;;;;;;8.35;2.72;;;;;;;17.45;45.68;96897.94;4472058;32;20088;-77
2021/12/25 12:38:35;;;;;;;7.18;2.70;;;;;;;18.10;43.39;96897.25;4471559;32;20112;-77
2021/12/25 12:41:24;;;;;;;5.50;2.28;;;;;;;17.96;44.13;96910.72;4471955;32;20149;-77
2021/12/25 12:43:59;;;;;;;6.35;2.58;;;;;;;17.85;44.49;96908.25;4472018;32;20199;-77
2021/12/25 12:46:53;;;;;;;7.40;3.00;;;;;;;17.94;44.65;96896.97;4471710;32;20124;-77
2021/12/25 12:49:39;;;;;;;8.07;3.08;;;;;;;17.05;46.58;96896.22;4463161;32;20090;-77
2021/12/25 12:52:21;;;;;;;7.00;2.83;;;;;;;17.05;46.31;96894.44;4471772;32;20133;-77